Home > Products > Valid Products > TAF

000
FTUS42 KMHX 050539
TAFEWN
TAF
KEWN 050539Z 0506/0606 27003KT P6SM SCT009
     FM050800 VRB03KT 3SM BR SCT008
     FM051230 26004KT P6SM FEW040
     FM052000 21008KT P6SM BKN050=



000
FTUS42 KMHX 050328 AAA
TAFEWN
TAF AMD
KEWN 050328Z 0503/0524 VRB03KT P6SM SCT009
      TEMPO 0503/0505 BKN009
     FM050600 22003KT 3SM BR SCT008
     FM051230 26004KT P6SM SCT040=



000
FTUS42 KMHX 042337
TAFEWN
TAF
KEWN 042337Z 0500/0524 VRB03KT P6SM FEW250
      TEMPO 0500/0502 -SHRA BKN012
     FM050600 22003KT 3SM BR SCT008
     FM051230 26004KT P6SM SCT040=



000
FTUS42 KMHX 041736
TAFEWN
TAF
KEWN 041736Z 0418/0518 19010KT P6SM VCTS OVC040CB
     FM042100 19010KT P6SM VCSH BKN050
     FM050100 21005KT P6SM SCT250
     FM050600 22002KT 3SM BR SCT008
     FM051300 27004KT P6SM SCT030=



000
FTUS42 KMHX 041418 AAA
TAFEWN
TAF AMD
KEWN 041418Z 0414/0512 19005KT P6SM SCT015 BKN050
      TEMPO 0414/0416 VRB15G25KT 1SM TSRA BKN015CB
     FM041600 19010KT P6SM VCSH OVC050
     FM042100 19010KT P6SM BKN050
     FM050100 21005KT P6SM SCT250=



000
FTUS42 KMHX 041122
TAFEWN
TAF
KEWN 041122Z 0412/0512 19005KT P6SM BKN100
     FM041500 19010KT P6SM VCSH OVC050
     FM042100 19010KT P6SM BKN050
     FM050100 21005KT P6SM SCT250=



000
FTUS42 KMHX 040531
TAFEWN
TAF
KEWN 040531Z 0406/0506 18005KT P6SM SCT250
     FM041200 19010KT P6SM VCSH OVC050
     FM042100 19010KT P6SM BKN050
     FM050100 21005KT P6SM SCT250=



000
FTUS42 KMHX 032340
TAFEWN
TAF
KEWN 032340Z 0400/0424 21004KT P6SM SCT120
     FM041200 19008KT P6SM VCSH BKN050=



000
FTUS42 KMHX 032340
TAFEWN
TAF
KEWN 032340Z 0400/0424 21004KT P6SM SCT120
     FM041200 19008KT P6SM VCSH BKN050=



000
FTUS42 KMHX 031751
TAFEWN
TAF
KEWN 031751Z 0318/0418 19010KT P6SM VCTS BKN050CB
     FM040000 21004KT P6SM VCSH BKN120=



000
FTUS42 KMHX 031120
TAFEWN
TAF
KEWN 031120Z 0312/0412 21005KT P6SM VCSH SCT015 BKN040 OVC070
     FM031600 21010KT P6SM VCTS OVC050CB
     FM040000 21005KT P6SM VCSH OVC050=



000
FTUS42 KMHX 031120
TAFEWN
TAF
KEWN 031120Z 0312/0412 21005KT P6SM VCSH SCT015 BKN040 OVC070
     FM031600 21010KT P6SM VCTS OVC050CB
     FM040000 21005KT P6SM VCSH OVC050=



000
FTUS42 KMHX 030841 AAD
TAFEWN
TAF AMD
KEWN 030841Z 0309/0406 23005KT P6SM VCSH SCT015 BKN020 BKN025
     FM031300 21005KT P6SM VCSH SCT050 OVC100
     FM031600 21010KT P6SM VCTS OVC050CB
     FM040000 21005KT P6SM VCSH OVC050=



000
FTUS42 KMHX 030758 AAC
TAFEWN
TAF AMD
KEWN 030758Z 0308/0406 00000KT P6SM VCSH BKN025
     FM030900 20005KT 5SM BR VCSH BKN015 OVC025
     FM031200 21005KT P6SM VCSH SCT050 OVC100
     FM031600 21010KT P6SM VCTS OVC050CB
     FM040000 21005KT P6SM VCSH OVC050=



000
FTUS42 KMHX 030758 AAC
TAFEWN
TAF AMD
KEWN 030758Z 0308/0406 00000KT P6SM VCSH BKN025
     FM030900 20005KT 5SM BR VCSH BKN015 OVC025
     FM031200 21005KT P6SM VCSH SCT050 OVC100
     FM031600 21010KT P6SM VCTS OVC050CB
     FM040000 21005KT P6SM VCSH OVC050=



000
FTUS42 KMHX 030749 AAB
TAFEWN
TAF AMD
KEWN 030749Z 0308/0406 00000KT P6SM BKN025
     FM030900 20005KT 5SM BR BKN015 OVC025
     FM031200 21005KT P6SM VCSH SCT050 OVC100
     FM031600 21010KT P6SM VCTS OVC050CB
     FM040000 21005KT P6SM VCSH OVC050=



000
FTUS42 KMHX 030702 AAA
TAFEWN
TAF AMD
KEWN 030702Z 0307/0406 00000KT P6SM BKN015 OVC025
     FM030900 20005KT 5SM BR BKN015 OVC025
     FM031200 21005KT P6SM VCSH SCT050 OVC100
     FM031600 21010KT P6SM VCTS OVC050CB
     FM040000 21005KT P6SM VCSH OVC050=



000
FTUS42 KMHX 030702 AAA
TAFEWN
TAF AMD
KEWN 030702Z 0307/0406 00000KT P6SM BKN015 OVC025
     FM030900 20005KT 5SM BR BKN015 OVC025
     FM031200 21005KT P6SM VCSH SCT050 OVC100
     FM031600 21010KT P6SM VCTS OVC050CB
     FM040000 21005KT P6SM VCSH OVC050=



000
FTUS42 KMHX 030523
TAFEWN
TAF
KEWN 030523Z 0306/0406 20005KT P6SM SCT250
     FM030800 20005KT 5SM BR BKN100
     FM031200 21005KT P6SM VCSH SCT050 OVC100
     FM031600 21010KT P6SM VCTS OVC050CB
     FM040000 21005KT P6SM VCSH OVC050=



000
FTUS42 KMHX 030523
TAFEWN
TAF
KEWN 030523Z 0306/0406 20005KT P6SM SCT250
     FM030800 20005KT 5SM BR BKN100
     FM031200 21005KT P6SM VCSH SCT050 OVC100
     FM031600 21010KT P6SM VCTS OVC050CB
     FM040000 21005KT P6SM VCSH OVC050=



000
FTUS42 KMHX 022355
TAFEWN
TAF
KEWN 022355Z 0300/0324 19008KT P6SM SKC
     FM030800 20003KT 5SM BR BKN150
     FM031200 21007KT P6SM VCSH BKN150
     FM031600 20010KT P6SM VCTS BKN050CB=



000
FTUS42 KMHX 022355
TAFEWN
TAF
KEWN 022355Z 0300/0324 19008KT P6SM SKC
     FM030800 20003KT 5SM BR BKN150
     FM031200 21007KT P6SM VCSH BKN150
     FM031600 20010KT P6SM VCTS BKN050CB=



000
FTUS42 KMHX 021721
TAFEWN
TAF
KEWN 021721Z 0218/0318 21005KT P6SM SKC
     FM030900 VRB03KT 4SM BR SCT250
     FM031300 25005KT P6SM OVC120=



000
FTUS42 KMHX 021721
TAFEWN
TAF
KEWN 021721Z 0218/0318 21005KT P6SM SKC
     FM030900 VRB03KT 4SM BR SCT250
     FM031300 25005KT P6SM OVC120=



000
FTUS42 KMHX 021123
TAFEWN
TAF
KEWN 021123Z 0212/0312 21005KT P6SM SKC
     FM021700 14005KT P6SM FEW060
     FM030000 17005KT P6SM SKC
     FM030900 00000KT 4SM BR SCT250=



000
FTUS42 KMHX 021123
TAFEWN
TAF
KEWN 021123Z 0212/0312 21005KT P6SM SKC
     FM021700 14005KT P6SM FEW060
     FM030000 17005KT P6SM SKC
     FM030900 00000KT 4SM BR SCT250=



000
FTUS42 KMHX 020853 AAA
TAFEWN
TAF AMD
KEWN 020853Z 0209/0306 21005KT P6SM SKC
     FM021700 14005KT P6SM FEW060
     FM030000 17005KT P6SM SKC=



000
FTUS42 KMHX 020853 AAA
TAFEWN
TAF AMD
KEWN 020853Z 0209/0306 21005KT P6SM SKC
     FM021700 14005KT P6SM FEW060
     FM030000 17005KT P6SM SKC=



    US Dept of Commerce
    National Oceanic and Atmospheric Administration
    National Weather Service
    1325 East West Highway
    Silver Spring, MD 20910
    Page Author: NWS Internet Services Team
Disclaimer
Information Quality
Credits
Glossary
Privacy Policy
Freedom of Information Act (FOIA)
About Us
Career Opportunities